createdAt,value
2024-04-08T11:31:27.303Z,0.35
2024-04-08T11:33:54.396Z,0.90
2024-04-08T11:36:24.225Z,0.65
2024-04-08T11:38:51.713Z,0.55
2024-04-08T11:41:21.747Z,0.60
2024-04-08T11:43:49.438Z,0.70
2024-04-08T11:46:20.252Z,0.50
2024-04-08T11:48:50.180Z,0.55
2024-04-08T11:51:20.156Z,1.05
2024-04-08T11:53:47.350Z,0.90
2024-04-08T11:56:17.876Z,0.50
2024-04-08T11:58:45.117Z,0.50
2024-04-08T12:01:15.131Z,0.47
2024-04-08T12:03:42.472Z,0.50
2024-04-08T12:06:16.597Z,0.50
2024-04-08T12:08:43.939Z,0.40
2024-04-08T12:11:14.969Z,0.40
2024-04-08T12:13:44.148Z,0.77
2024-04-08T12:16:14.404Z,0.30
2024-04-08T12:18:41.832Z,0.52
2024-04-08T12:21:14.592Z,0.50
2024-04-08T12:23:41.955Z,0.47
2024-04-08T12:26:12.825Z,0.40
2024-04-08T12:28:39.934Z,0.60
2024-04-08T12:31:09.760Z,0.73
2024-04-08T12:33:37.128Z,0.57
2024-04-08T12:36:07.488Z,0.73
2024-04-08T12:38:37.375Z,0.40
2024-04-08T12:41:07.737Z,0.50
2024-04-08T12:43:46.721Z,0.70
2024-04-08T12:46:21.890Z,0.60
2024-04-08T12:48:49.084Z,0.60
2024-04-08T12:51:19.100Z,0.63
2024-04-08T12:53:48.913Z,0.60
2024-04-08T12:56:18.759Z,0.25
2024-04-08T12:58:45.854Z,0.63
2024-04-08T13:01:16.282Z,0.70
2024-04-08T13:03:43.591Z,0.50
2024-04-08T13:06:13.364Z,0.60
2024-04-08T13:08:40.425Z,0.65
2024-04-08T13:11:12.847Z,0.70
2024-04-08T13:13:42.307Z,0.60
2024-04-08T13:16:13.795Z,0.50
2024-04-08T13:18:43.103Z,0.70
2024-04-08T13:21:13.140Z,0.60
2024-04-08T13:23:40.731Z,0.80
2024-04-08T13:26:14.349Z,0.50
2024-04-08T13:28:41.444Z,0.60
2024-04-08T13:31:11.271Z,0.50
2024-04-08T13:33:38.547Z,0.50
2024-04-08T13:36:11.387Z,0.68
2024-04-08T13:38:38.858Z,0.77
2024-04-08T13:41:09.961Z,0.45
2024-04-08T13:43:42.923Z,0.45
2024-04-08T13:46:14.261Z,0.50
2024-04-08T13:48:41.545Z,0.60
2024-04-08T13:51:11.406Z,0.55
2024-04-08T13:53:38.598Z,0.52
2024-04-08T13:56:09.303Z,0.50
2024-04-08T13:58:36.440Z,0.50
2024-04-08T14:01:08.863Z,0.63
2024-04-08T14:03:36.512Z,0.50
2024-04-08T14:06:06.426Z,0.50
2024-04-08T14:08:33.616Z,0.55
2024-04-08T14:11:04.464Z,0.60
2024-04-08T14:13:31.872Z,0.60
2024-04-08T14:16:01.734Z,0.68
2024-04-08T14:18:31.970Z,0.50
2024-04-08T14:21:02.018Z,0.50
2024-04-08T14:23:29.228Z,0.40
2024-04-08T14:25:58.984Z,1.33
2024-04-08T14:28:26.084Z,0.40
2024-04-08T14:30:55.850Z,0.77
2024-04-08T14:33:23.265Z,0.77
2024-04-08T14:35:55.942Z,0.95
2024-04-08T14:38:46.604Z,0.50
2024-04-08T14:41:12.866Z,0.32
2024-04-08T14:43:47.062Z,0.60
2024-04-08T14:46:25.085Z,0.60
2024-04-08T14:48:52.365Z,0.82
2024-04-08T14:51:33.522Z,0.30
2024-04-08T14:54:06.360Z,0.60
2024-04-08T14:56:36.560Z,0.40
2024-04-08T14:59:04.029Z,0.70
2024-04-08T15:01:34.162Z,0.45
2024-04-08T15:04:02.147Z,0.50
2024-04-08T15:06:34.620Z,0.60
2024-04-08T15:09:01.809Z,0.60
2024-04-08T15:11:35.096Z,0.40
2024-04-08T15:14:02.315Z,0.60
2024-04-08T15:16:32.635Z,0.40
2024-04-08T15:18:59.971Z,0.50
2024-04-08T15:21:29.930Z,0.57
2024-04-08T15:24:00.049Z,0.60
2024-04-08T15:26:30.373Z,0.50
2024-04-08T15:28:57.458Z,1.00
2024-04-08T15:31:27.213Z,0.70
2024-04-08T15:33:54.522Z,0.50
2024-04-08T15:36:24.445Z,0.30
2024-04-08T15:38:51.754Z,0.80
2024-04-08T15:41:24.424Z,0.80
2024-04-08T15:43:51.556Z,0.50
2024-04-08T15:46:21.269Z,0.40
2024-04-08T15:48:48.559Z,0.60
2024-04-08T15:51:19.361Z,0.55
2024-04-08T15:53:46.782Z,0.45
2024-04-08T15:56:16.663Z,0.60
2024-04-08T15:58:46.496Z,0.70
2024-04-08T16:01:16.323Z,0.80
2024-04-08T16:03:43.809Z,0.95
2024-04-08T16:06:15.600Z,1.15
2024-04-08T16:08:44.519Z,0.65
2024-04-08T16:11:21.253Z,0.70
2024-04-08T16:13:51.172Z,0.55
2024-04-08T16:16:21.156Z,0.60
2024-04-08T16:18:48.445Z,0.73
2024-04-08T16:21:23.888Z,0.60
2024-04-08T16:23:55.445Z,0.60
2024-04-08T16:26:27.122Z,0.63
2024-04-08T16:29:01.198Z,0.50
2024-04-08T16:31:34.437Z,1.05
2024-04-08T16:34:02.290Z,0.88
2024-04-08T16:36:32.685Z,1.02
2024-04-08T16:39:00.202Z,1.27
2024-04-08T16:41:30.325Z,1.15
2024-04-08T16:44:04.740Z,0.90
2024-04-08T16:46:34.564Z,1.65
2024-04-08T16:49:02.053Z,0.95
2024-04-08T16:51:32.128Z,1.00
2024-04-08T16:53:59.357Z,1.38
2024-04-08T16:56:31.918Z,2.00
2024-04-08T16:59:05.669Z,1.20
2024-04-08T17:01:32.826Z,1.08
2024-04-08T17:04:05.379Z,0.70
2024-04-08T17:06:37.541Z,0.70
2024-04-08T17:09:07.539Z,1.00
2024-04-08T17:11:34.667Z,0.65
2024-04-08T17:14:07.061Z,0.98
2024-04-08T17:16:34.919Z,0.98
2024-04-08T17:19:05.699Z,1.35
2024-04-08T17:21:34.146Z,1.80
2024-04-08T17:24:05.080Z,1.58
2024-04-08T17:26:32.313Z,1.52
2024-04-08T17:29:02.126Z,1.75
2024-04-08T17:31:32.089Z,1.67
2024-04-08T17:34:03.951Z,2.40
2024-04-08T17:36:31.545Z,2.33
2024-04-08T17:39:03.185Z,1.42
2024-04-08T17:41:30.337Z,1.35
2024-04-08T17:44:01.821Z,1.52
2024-04-08T17:46:33.292Z,1.42
2024-04-08T17:49:05.602Z,1.50
2024-04-08T17:51:33.073Z,1.52
2024-04-08T17:54:03.192Z,1.77
2024-04-08T17:56:32.654Z,1.20
2024-04-08T17:59:03.517Z,1.10
2024-04-08T18:01:33.320Z,1.30
2024-04-08T18:04:03.679Z,1.30
2024-04-08T18:06:30.949Z,1.60
2024-04-08T18:09:01.049Z,1.15
2024-04-08T18:11:28.353Z,1.10
2024-04-08T18:13:58.533Z,1.48
2024-04-08T18:16:26.296Z,1.10
2024-04-08T18:18:59.101Z,0.90
2024-04-08T18:21:26.281Z,1.08
2024-04-08T18:23:56.136Z,1.20
2024-04-08T18:26:24.709Z,1.02
2024-04-08T18:28:57.080Z,1.33
2024-04-08T18:31:24.535Z,1.50
2024-04-08T18:33:54.823Z,1.40
2024-04-08T18:36:26.053Z,1.30
2024-04-08T18:38:55.994Z,1.15
2024-04-08T18:41:23.067Z,1.30
2024-04-08T18:43:53.289Z,1.52
2024-04-08T18:46:21.772Z,1.10
2024-04-08T18:48:51.834Z,1.10
2024-04-08T18:51:19.324Z,1.15
2024-04-08T18:53:54.265Z,0.90
2024-04-08T18:56:23.700Z,1.85
2024-04-08T18:58:56.663Z,1.90
2024-04-08T19:01:25.573Z,2.17
2024-04-08T19:03:56.145Z,1.83
2024-04-08T19:06:23.780Z,1.60
2024-04-08T19:08:56.784Z,1.60
2024-04-08T19:11:32.102Z,1.88
2024-04-08T19:14:07.114Z,1.30
2024-04-08T19:16:34.206Z,1.75
2024-04-08T19:19:04.769Z,1.52
2024-04-08T19:21:32.262Z,5.05
2024-04-08T19:24:05.143Z,3.47
2024-04-08T19:26:33.733Z,2.17
2024-04-08T19:29:03.458Z,2.58
2024-04-08T19:31:30.654Z,2.30
2024-04-08T19:34:00.609Z,2.35
2024-04-08T19:36:29.454Z,2.58
2024-04-08T19:38:59.371Z,2.20
2024-04-08T19:41:30.737Z,1.23
2024-04-08T19:44:01.249Z,0.95
2024-04-08T19:46:29.012Z,2.10
2024-04-08T19:48:59.348Z,1.60
2024-04-08T19:51:27.081Z,2.38
2024-04-08T19:53:57.265Z,2.45
2024-04-08T19:56:26.351Z,2.35
2024-04-08T19:58:59.279Z,1.77
2024-04-08T20:01:26.504Z,1.73
2024-04-08T20:03:57.110Z,1.40
2024-04-08T20:06:25.662Z,1.33
2024-04-08T20:08:55.417Z,1.23
2024-04-08T20:11:22.565Z,1.90
2024-04-08T20:13:52.354Z,2.17
2024-04-08T20:16:22.734Z,2.33
2024-04-08T20:18:53.554Z,1.77
2024-04-08T20:21:22.043Z,1.60
2024-04-08T20:23:51.844Z,1.30
2024-04-08T20:26:19.555Z,1.20
2024-04-08T20:28:49.395Z,1.13
2024-04-08T20:31:16.494Z,0.90
2024-04-08T20:33:50.556Z,0.95
2024-04-08T20:36:17.995Z,1.10
2024-04-08T20:38:48.225Z,1.10
2024-04-08T20:41:15.366Z,0.90
2024-04-08T20:43:45.755Z,0.80
2024-04-08T20:46:12.952Z,1.00
2024-04-08T20:48:43.591Z,1.02
2024-04-08T20:51:13.555Z,0.77
2024-04-08T20:53:43.293Z,0.85
2024-04-08T20:56:11.230Z,1.00
2024-04-08T20:58:40.982Z,0.70
2024-04-08T21:01:09.616Z,0.80
2024-04-08T21:03:41.100Z,0.90
2024-04-08T21:06:09.562Z,1.02
2024-04-08T21:08:43.764Z,0.80
2024-04-08T21:11:15.080Z,0.88
2024-04-08T21:13:42.454Z,1.10
2024-04-08T21:16:12.327Z,1.30
2024-04-08T21:18:39.606Z,1.20
2024-04-08T21:21:11.693Z,1.02
2024-04-08T21:23:42.234Z,1.27
2024-04-08T21:26:14.626Z,0.82
2024-04-08T21:28:44.112Z,1.02
2024-04-08T21:31:14.771Z,1.20
2024-04-08T21:33:44.043Z,1.17
2024-04-08T21:36:13.837Z,2.08
2024-04-08T21:38:43.654Z,1.00
2024-04-08T21:41:14.496Z,0.60
2024-04-08T21:43:43.870Z,0.90
2024-04-08T21:46:17.703Z,0.90
2024-04-08T21:48:45.020Z,1.02
2024-04-08T21:51:19.611Z,0.80
2024-04-08T21:53:49.405Z,1.08
2024-04-08T21:56:19.110Z,0.80
2024-04-08T21:58:47.516Z,1.00
2024-04-08T22:01:18.366Z,1.10
2024-04-08T22:03:47.056Z,1.38
2024-04-08T22:06:17.307Z,1.00
2024-04-08T22:08:46.530Z,0.93
2024-04-08T22:11:19.886Z,1.33
2024-04-08T22:13:47.525Z,1.23
2024-04-08T22:16:17.455Z,1.05
2024-04-08T22:18:44.619Z,1.25
2024-04-08T22:21:14.379Z,1.17
2024-04-08T22:23:43.301Z,1.38
2024-04-08T22:26:14.353Z,1.42
2024-04-08T22:28:44.258Z,1.23
2024-04-08T22:31:13.965Z,1.15
2024-04-08T22:33:41.260Z,0.95
2024-04-08T22:36:11.896Z,1.17
2024-04-08T22:38:39.113Z,1.23
2024-04-08T22:41:15.908Z,1.00
2024-04-08T22:43:50.511Z,1.20
2024-04-08T22:46:21.053Z,1.27
2024-04-08T22:48:48.229Z,1.10
2024-04-08T22:51:18.136Z,1.40
2024-04-08T22:53:45.294Z,1.27
2024-04-08T22:56:15.134Z,0.93
2024-04-08T22:58:42.320Z,1.10
2024-04-08T23:01:15.720Z,1.10
2024-04-08T23:03:43.503Z,0.85
2024-04-08T23:06:13.490Z,1.13
2024-04-08T23:08:40.606Z,0.82
2024-04-08T23:11:10.777Z,1.15
2024-04-08T23:13:37.916Z,0.90
2024-04-08T23:16:08.049Z,0.77
2024-04-08T23:18:38.339Z,1.05
2024-04-08T23:21:08.471Z,1.20
2024-04-08T23:23:35.677Z,1.00
2024-04-08T23:26:06.137Z,0.98
2024-04-08T23:28:33.595Z,1.00
2024-04-08T23:31:03.370Z,0.90
2024-04-08T23:33:31.023Z,1.00
2024-04-08T23:36:04.138Z,0.90
2024-04-08T23:38:32.611Z,0.88
2024-04-08T23:41:02.998Z,0.88
2024-04-08T23:43:30.315Z,1.00
2024-04-08T23:46:01.420Z,0.70
2024-04-08T23:48:30.618Z,0.80
2024-04-08T23:51:03.906Z,0.93
2024-04-08T23:53:31.008Z,0.68
2024-04-08T23:56:01.299Z,0.90
2024-04-08T23:58:28.530Z,0.80
